Terminal Aerodrome Forecast
Issued by NWS

Home | Current Version | Previous Version | Text Only | Print | Product List | Glossary On
Versions: 1 2 3 4 5 6 7 8 9 10 11 12 13 14
403
FTUS42 KMLB 221308 AAA
TAFTIX
TAF AMD
KTIX 221308Z 2213/2312 33007KT 6SM HZ FEW080
     FM221400 34009KT P6SM FEW030 SCT250
     FM221800 04011KT P6SM SCT040
     FM230000 05006KT P6SM SCT060=

USA.gov is the U.S. government's official web portal to all federal, state and local government web resources and services.